sensor_id;sensor_type;location;lat;lon;timestamp;pressure;altitude;pressure_sealevel;temperature;humidity
55317;BME280;41178;48.956;8.130;2023-05-24T00:03:23;100147.91;;;13.27;46.93
55317;BME280;41178;48.956;8.130;2023-05-24T00:08:25;100107.94;;;12.74;48.53
55317;BME280;41178;48.956;8.130;2023-05-24T00:13:27;100179.53;;;14.38;46.86
55317;BME280;41178;48.956;8.130;2023-05-24T00:18:29;100134.56;;;12.91;48.01
55317;BME280;41178;48.956;8.130;2023-05-24T00:23:31;100175.84;;;14.46;45.99
55317;BME280;41178;48.956;8.130;2023-05-24T00:28:33;100175.31;;;14.71;45.58
55317;BME280;41178;48.956;8.130;2023-05-24T00:33:35;100187.22;;;14.42;45.69
55317;BME280;41178;48.956;8.130;2023-05-24T00:38:37;100180.56;;;13.74;46.74
55317;BME280;41178;48.956;8.130;2023-05-24T00:43:39;100121.09;;;13.13;46.93
55317;BME280;41178;48.956;8.130;2023-05-24T00:48:44;100172.56;;;13.81;46.38
55317;BME280;41178;48.956;8.130;2023-05-24T00:53:47;100164.72;;;13.86;46.87
55317;BME280;41178;48.956;8.130;2023-05-24T00:58:50;100169.72;;;14.17;45.44
55317;BME280;41178;48.956;8.130;2023-05-24T01:03:55;100161.91;;;14.91;45.06
55317;BME280;41178;48.956;8.130;2023-05-24T01:09:40;100173.94;;;14.40;45.36
55317;BME280;41178;48.956;8.130;2023-05-24T01:14:59;100162.38;;;13.26;46.45
55317;BME280;41178;48.956;8.130;2023-05-24T01:20:10;100171.81;;;13.65;46.07
55317;BME280;41178;48.956;8.130;2023-05-24T01:25:45;100154.38;;;14.66;44.90
55317;BME280;41178;48.956;8.130;2023-05-24T01:30:49;100163.34;;;13.40;46.64
55317;BME280;41178;48.956;8.130;2023-05-24T01:35:50;100161.16;;;14.07;46.02
55317;BME280;41178;48.956;8.130;2023-05-24T01:41:06;100159.94;;;14.58;45.25
55317;BME280;41178;48.956;8.130;2023-05-24T01:51:18;100166.78;;;14.12;45.59
55317;BME280;41178;48.956;8.130;2023-05-24T01:56:24;100104.19;;;11.73;48.74
55317;BME280;41178;48.956;8.130;2023-05-24T02:01:29;100143.38;;;12.48;46.98
55317;BME280;41178;48.956;8.130;2023-05-24T02:06:32;100188.78;;;13.01;47.00
55317;BME280;41178;48.956;8.130;2023-05-24T02:11:34;100127.84;;;11.69;49.06
55317;BME280;41178;48.956;8.130;2023-05-24T02:16:35;100191.75;;;12.70;47.47
55317;BME280;41178;48.956;8.130;2023-05-24T02:21:43;100172.91;;;12.18;47.44
55317;BME280;41178;48.956;8.130;2023-05-24T02:26:45;100192.53;;;14.00;45.03
55317;BME280;41178;48.956;8.130;2023-05-24T02:31:46;100159.03;;;11.85;47.45
55317;BME280;41178;48.956;8.130;2023-05-24T02:36:51;100183.81;;;12.02;47.25
55317;BME280;41178;48.956;8.130;2023-05-24T02:41:54;100192.69;;;12.32;46.80
55317;BME280;41178;48.956;8.130;2023-05-24T02:46:56;100172.44;;;11.62;47.64
55317;BME280;41178;48.956;8.130;2023-05-24T02:51:58;100209.72;;;12.10;47.16
55317;BME280;41178;48.956;8.130;2023-05-24T02:57:00;100204.19;;;13.29;45.54
55317;BME280;41178;48.956;8.130;2023-05-24T03:02:02;100178.34;;;11.57;47.24
55317;BME280;41178;48.956;8.130;2023-05-24T03:07:04;100220.53;;;12.31;46.49
55317;BME280;41178;48.956;8.130;2023-05-24T03:12:06;100210.63;;;12.62;45.43
55317;BME280;41178;48.956;8.130;2023-05-24T03:17:08;100190.66;;;11.90;46.77
55317;BME280;41178;48.956;8.130;2023-05-24T03:22:10;100205.28;;;12.02;47.20
55317;BME280;41178;48.956;8.130;2023-05-24T03:27:11;100206.47;;;12.44;46.40
55317;BME280;41178;48.956;8.130;2023-05-24T03:32:13;100177.13;;;11.45;47.41
55317;BME280;41178;48.956;8.130;2023-05-24T03:37:15;100207.69;;;12.27;46.60
55317;BME280;41178;48.956;8.130;2023-05-24T03:42:16;100201.22;;;12.51;45.95
55317;BME280;41178;48.956;8.130;2023-05-24T03:47:18;100208.78;;;12.99;45.63
55317;BME280;41178;48.956;8.130;2023-05-24T03:52:21;100216.97;;;12.54;46.11
55317;BME280;41178;48.956;8.130;2023-05-24T03:57:23;100153.69;;;11.01;48.41
55317;BME280;41178;48.956;8.130;2023-05-24T04:02:25;100206.66;;;12.43;46.12
55317;BME280;41178;48.956;8.130;2023-05-24T04:07:27;100145.81;;;10.68;49.18
55317;BME280;41178;48.956;8.130;2023-05-24T04:12:29;100210.72;;;12.68;46.12
55317;BME280;41178;48.956;8.130;2023-05-24T04:17:31;100212.81;;;12.88;45.97
55317;BME280;41178;48.956;8.130;2023-05-24T04:22:35;100232.78;;;12.64;46.26
55317;BME280;41178;48.956;8.130;2023-05-24T04:27:37;100205.13;;;11.42;47.43
55317;BME280;41178;48.956;8.130;2023-05-24T04:32:39;100203.50;;;11.33;48.64
55317;BME280;41178;48.956;8.130;2023-05-24T04:37:41;100211.44;;;13.14;46.33
55317;BME280;41178;48.956;8.130;2023-05-24T04:42:42;100219.34;;;11.43;48.27
55317;BME280;41178;48.956;8.130;2023-05-24T04:47:44;100211.69;;;11.63;47.62
55317;BME280;41178;48.956;8.130;2023-05-24T04:52:46;100220.94;;;11.75;48.20
55317;BME280;41178;48.956;8.130;2023-05-24T04:57:48;100164.72;;;10.75;48.41
55317;BME280;41178;48.956;8.130;2023-05-24T05:02:50;100176.84;;;10.54;49.86
55317;BME280;41178;48.956;8.130;2023-05-24T05:07:52;100200.16;;;10.85;48.72
55317;BME280;41178;48.956;8.130;2023-05-24T05:12:53;100198.72;;;10.66;49.12
55317;BME280;41178;48.956;8.130;2023-05-24T05:17:55;100235.84;;;11.09;48.21
55317;BME280;41178;48.956;8.130;2023-05-24T05:22:57;100254.34;;;11.88;47.43
55317;BME280;41178;48.956;8.130;2023-05-24T05:27:59;100247.84;;;12.65;46.65
55317;BME280;41178;48.956;8.130;2023-05-24T05:33:01;100249.53;;;11.37;47.49
55317;BME280;41178;48.956;8.130;2023-05-24T05:38:03;100262.84;;;12.29;46.46
55317;BME280;41178;48.956;8.130;2023-05-24T05:43:04;100250.66;;;13.94;44.67
55317;BME280;41178;48.956;8.130;2023-05-24T05:48:08;100287.81;;;12.45;45.97
55317;BME280;41178;48.956;8.130;2023-05-24T05:53:10;100270.72;;;11.78;47.25
55317;BME280;41178;48.956;8.130;2023-05-24T05:58:12;100270.56;;;12.09;47.00
55317;BME280;41178;48.956;8.130;2023-05-24T06:03:14;100267.66;;;11.58;47.63
55317;BME280;41178;48.956;8.130;2023-05-24T06:08:16;100227.94;;;10.84;48.52
55317;BME280;41178;48.956;8.130;2023-05-24T06:13:18;100169.72;;;9.90;49.76
55317;BME280;41178;48.956;8.130;2023-05-24T06:18:20;100244.34;;;11.12;48.41
55317;BME280;41178;48.956;8.130;2023-05-24T06:23:21;100237.28;;;10.88;48.88
55317;BME280;41178;48.956;8.130;2023-05-24T06:28:23;100235.00;;;11.31;47.37
55317;BME280;41178;48.956;8.130;2023-05-24T06:33:25;100254.59;;;11.32;47.88
55317;BME280;41178;48.956;8.130;2023-05-24T06:38:28;100270.50;;;12.17;46.36
55317;BME280;41178;48.956;8.130;2023-05-24T06:43:29;100289.66;;;11.45;46.90
55317;BME280;41178;48.956;8.130;2023-05-24T06:48:31;100280.00;;;11.13;47.25
55317;BME280;41178;48.956;8.130;2023-05-24T06:53:33;100262.25;;;10.80;46.82
55317;BME280;41178;48.956;8.130;2023-05-24T06:58:35;100318.81;;;11.94;45.85
55317;BME280;41178;48.956;8.130;2023-05-24T07:03:37;100311.97;;;11.69;45.89
55317;BME280;41178;48.956;8.130;2023-05-24T07:08:39;100345.19;;;12.29;46.05
55317;BME280;41178;48.956;8.130;2023-05-24T07:13:42;100352.13;;;12.76;45.08
55317;BME280;41178;48.956;8.130;2023-05-24T07:18:44;100357.16;;;12.03;45.73
55317;BME280;41178;48.956;8.130;2023-05-24T07:23:46;100334.44;;;13.70;44.32
55317;BME280;41178;48.956;8.130;2023-05-24T07:28:47;100378.88;;;12.31;45.54
55317;BME280;41178;48.956;8.130;2023-05-24T07:33:49;100363.88;;;11.76;46.58
55317;BME280;41178;48.956;8.130;2023-05-24T07:38:51;100340.78;;;11.12;46.72
55317;BME280;41178;48.956;8.130;2023-05-24T07:43:54;100360.66;;;11.80;46.02
55317;BME280;41178;48.956;8.130;2023-05-24T07:48:55;100368.34;;;11.84;46.36
55317;BME280;41178;48.956;8.130;2023-05-24T07:53:57;100372.19;;;12.80;44.41
55317;BME280;41178;48.956;8.130;2023-05-24T07:58:59;100384.03;;;11.95;44.77
55317;BME280;41178;48.956;8.130;2023-05-24T08:04:05;100398.84;;;12.52;44.46
55317;BME280;41178;48.956;8.130;2023-05-24T08:09:09;100396.06;;;12.60;44.50
55317;BME280;41178;48.956;8.130;2023-05-24T08:14:11;100393.69;;;13.25;42.82
55317;BME280;41178;48.956;8.130;2023-05-24T08:19:12;100407.50;;;12.39;43.50
55317;BME280;41178;48.956;8.130;2023-05-24T08:24:14;100375.38;;;11.53;43.10
55317;BME280;41178;48.956;8.130;2023-05-24T08:29:16;100392.09;;;11.63;43.31
55317;BME280;41178;48.956;8.130;2023-05-24T08:34:18;100395.44;;;11.66;43.46
55317;BME280;41178;48.956;8.130;2023-05-24T08:39:20;100404.75;;;12.01;43.55
55317;BME280;41178;48.956;8.130;2023-05-24T08:44:22;100413.31;;;12.43;42.03
55317;BME280;41178;48.956;8.130;2023-05-24T08:49:24;100416.28;;;13.16;41.29
55317;BME280;41178;48.956;8.130;2023-05-24T08:54:26;100411.22;;;13.72;40.92
55317;BME280;41178;48.956;8.130;2023-05-24T08:59:28;100423.22;;;13.91;40.28
55317;BME280;41178;48.956;8.130;2023-05-24T09:04:29;100445.22;;;13.80;40.95
55317;BME280;41178;48.956;8.130;2023-05-24T09:09:33;100394.56;;;12.19;41.98
55317;BME280;41178;48.956;8.130;2023-05-24T09:14:35;100414.66;;;13.66;40.75
55317;BME280;41178;48.956;8.130;2023-05-24T09:19:37;100400.56;;;13.79;40.92
55317;BME280;41178;48.956;8.130;2023-05-24T09:24:46;100391.91;;;14.05;40.65
55317;BME280;41178;48.956;8.130;2023-05-24T09:29:49;100423.25;;;14.13;40.48
55317;BME280;41178;48.956;8.130;2023-05-24T09:34:52;100407.19;;;15.04;39.91
55317;BME280;41178;48.956;8.130;2023-05-24T09:39:54;100405.66;;;14.60;38.76
55317;BME280;41178;48.956;8.130;2023-05-24T09:45:02;100378.50;;;16.00;38.78
55317;BME280;41178;48.956;8.130;2023-05-24T09:50:14;100361.47;;;16.53;38.40
55317;BME280;41178;48.956;8.130;2023-05-24T09:55:18;100368.78;;;16.39;36.90
55317;BME280;41178;48.956;8.130;2023-05-24T10:00:22;100352.72;;;16.71;36.60
55317;BME280;41178;48.956;8.130;2023-05-24T10:05:24;100391.16;;;15.93;36.69
55317;BME280;41178;48.956;8.130;2023-05-24T10:10:27;100412.91;;;14.88;36.64
55317;BME280;41178;48.956;8.130;2023-05-24T10:15:29;100355.25;;;14.04;36.93
55317;BME280;41178;48.956;8.130;2023-05-24T10:20:31;100372.78;;;14.71;37.32
55317;BME280;41178;48.956;8.130;2023-05-24T10:25:34;100322.44;;;16.35;36.59
55317;BME280;41178;48.956;8.130;2023-05-24T10:35:49;100350.78;;;15.03;35.00
55317;BME280;41178;48.956;8.130;2023-05-24T10:40:51;100347.38;;;15.22;34.98
55317;BME280;41178;48.956;8.130;2023-05-24T10:45:53;100372.34;;;15.51;35.24
55317;BME280;41178;48.956;8.130;2023-05-24T10:51:00;100278.03;;;17.35;34.04
55317;BME280;41178;48.956;8.130;2023-05-24T10:56:02;100341.53;;;15.19;34.45
55317;BME280;41178;48.956;8.130;2023-05-24T11:06:44;100304.78;;;16.26;36.43
55317;BME280;41178;48.956;8.130;2023-05-24T11:11:47;100326.09;;;14.29;36.05
55317;BME280;41178;48.956;8.130;2023-05-24T11:16:49;100282.53;;;15.64;36.98
55317;BME280;41178;48.956;8.130;2023-05-24T11:21:55;100310.63;;;15.14;36.40
55317;BME280;41178;48.956;8.130;2023-05-24T11:27:00;100294.13;;;15.51;36.72
55317;BME280;41178;48.956;8.130;2023-05-24T11:32:02;100306.72;;;14.47;35.68
55317;BME280;41178;48.956;8.130;2023-05-24T11:37:05;100314.06;;;14.60;34.47
55317;BME280;41178;48.956;8.130;2023-05-24T11:42:08;100319.75;;;15.13;35.36
55317;BME280;41178;48.956;8.130;2023-05-24T11:47:11;100304.63;;;14.36;35.09
55317;BME280;41178;48.956;8.130;2023-05-24T11:52:13;100312.66;;;15.06;35.07
55317;BME280;41178;48.956;8.130;2023-05-24T11:57:18;100270.06;;;14.11;36.61
55317;BME280;41178;48.956;8.130;2023-05-24T12:02:21;100259.81;;;14.63;34.97
55317;BME280;41178;48.956;8.130;2023-05-24T12:07:23;100238.72;;;14.03;36.58
55317;BME280;41178;48.956;8.130;2023-05-24T12:12:25;100284.84;;;14.92;35.33
55317;BME280;41178;48.956;8.130;2023-05-24T12:17:38;100234.78;;;16.96;33.84
55317;BME280;41178;48.956;8.130;2023-05-24T12:22:47;100254.00;;;15.14;33.22
55317;BME280;41178;48.956;8.130;2023-05-24T12:27:54;100289.00;;;15.69;30.13
55317;BME280;41178;48.956;8.130;2023-05-24T12:32:57;100298.34;;;16.34;32.16
55317;BME280;41178;48.956;8.130;2023-05-24T12:37:59;100252.50;;;14.50;31.64
55317;BME280;41178;48.956;8.130;2023-05-24T12:43:02;100274.47;;;15.91;32.52
55317;BME280;41178;48.956;8.130;2023-05-24T12:48:04;100223.47;;;14.46;31.79
55317;BME280;41178;48.956;8.130;2023-05-24T12:53:06;100223.66;;;16.66;32.45
55317;BME280;41178;48.956;8.130;2023-05-24T12:58:09;100252.63;;;15.39;33.39
55317;BME280;41178;48.956;8.130;2023-05-24T13:03:11;100229.44;;;15.71;32.33
55317;BME280;41178;48.956;8.130;2023-05-24T13:08:14;100225.25;;;16.29;32.87
55317;BME280;41178;48.956;8.130;2023-05-24T13:13:16;100226.94;;;16.75;31.64
55317;BME280;41178;48.956;8.130;2023-05-24T13:18:18;100188.91;;;15.11;31.36
55317;BME280;41178;48.956;8.130;2023-05-24T13:23:20;100217.56;;;16.12;30.55
55317;BME280;41178;48.956;8.130;2023-05-24T13:28:22;100198.00;;;17.21;31.41
55317;BME280;41178;48.956;8.130;2023-05-24T13:33:23;100204.13;;;16.64;30.90
55317;BME280;41178;48.956;8.130;2023-05-24T13:38:26;100170.06;;;15.44;32.54
55317;BME280;41178;48.956;8.130;2023-05-24T13:43:28;100177.09;;;16.71;33.80
55317;BME280;41178;48.956;8.130;2023-05-24T13:48:31;100185.75;;;16.34;32.11
55317;BME280;41178;48.956;8.130;2023-05-24T13:53:32;100185.13;;;16.25;32.03
55317;BME280;41178;48.956;8.130;2023-05-24T13:58:34;100164.50;;;16.44;32.12
55317;BME280;41178;48.956;8.130;2023-05-24T14:03:37;100165.69;;;15.97;32.02
55317;BME280;41178;48.956;8.130;2023-05-24T14:08:41;100162.09;;;16.75;32.85
55317;BME280;41178;48.956;8.130;2023-05-24T14:13:43;100148.06;;;16.98;32.17
55317;BME280;41178;48.956;8.130;2023-05-24T14:18:47;100137.22;;;17.30;33.11
55317;BME280;41178;48.956;8.130;2023-05-24T14:23:50;100142.44;;;16.99;33.17
55317;BME280;41178;48.956;8.130;2023-05-24T14:28:52;100154.75;;;16.50;33.29
55317;BME280;41178;48.956;8.130;2023-05-24T14:33:57;100140.97;;;16.06;32.77
55317;BME280;41178;48.956;8.130;2023-05-24T14:38:59;100116.66;;;16.90;32.79
55317;BME280;41178;48.956;8.130;2023-05-24T14:44:00;100119.09;;;16.67;32.67
55317;BME280;41178;48.956;8.130;2023-05-24T14:49:03;100137.91;;;16.48;31.90
55317;BME280;41178;48.956;8.130;2023-05-24T14:54:05;100059.91;;;15.48;32.53
55317;BME280;41178;48.956;8.130;2023-05-24T14:59:07;100086.91;;;15.35;31.60
55317;BME280;41178;48.956;8.130;2023-05-24T15:04:08;100130.06;;;16.78;30.63
55317;BME280;41178;48.956;8.130;2023-05-24T15:09:10;100087.53;;;16.22;32.45
55317;BME280;41178;48.956;8.130;2023-05-24T15:14:12;100137.84;;;16.61;32.79
55317;BME280;41178;48.956;8.130;2023-05-24T15:19:14;100102.09;;;16.98;31.28
55317;BME280;41178;48.956;8.130;2023-05-24T15:24:15;100100.47;;;16.58;32.30
55317;BME280;41178;48.956;8.130;2023-05-24T15:29:18;100052.84;;;17.65;32.60
55317;BME280;41178;48.956;8.130;2023-05-24T15:34:19;100084.47;;;16.89;32.48
55317;BME280;41178;48.956;8.130;2023-05-24T15:39:24;100053.25;;;17.62;32.26
55317;BME280;41178;48.956;8.130;2023-05-24T15:44:25;100100.38;;;16.40;32.43
55317;BME280;41178;48.956;8.130;2023-05-24T15:49:27;100077.03;;;16.84;31.83
55317;BME280;41178;48.956;8.130;2023-05-24T15:54:29;100096.44;;;16.29;32.98
55317;BME280;41178;48.956;8.130;2023-05-24T15:59:31;100048.75;;;18.11;32.03
55317;BME280;41178;48.956;8.130;2023-05-24T16:04:35;99927.91;;;14.74;33.94
55317;BME280;41178;48.956;8.130;2023-05-24T16:09:37;100067.00;;;15.56;34.05
55317;BME280;41178;48.956;8.130;2023-05-24T16:14:39;100078.72;;;15.95;33.89
55317;BME280;41178;48.956;8.130;2023-05-24T16:19:40;100075.31;;;16.06;33.11
55317;BME280;41178;48.956;8.130;2023-05-24T16:24:43;100067.63;;;16.87;32.95
55317;BME280;41178;48.956;8.130;2023-05-24T16:29:45;100069.06;;;17.21;32.26
55317;BME280;41178;48.956;8.130;2023-05-24T16:34:47;100078.44;;;16.55;32.93
55317;BME280;41178;48.956;8.130;2023-05-24T16:39:57;100072.25;;;16.79;32.79
55317;BME280;41178;48.956;8.130;2023-05-24T16:44:59;100040.94;;;15.95;35.19
55317;BME280;41178;48.956;8.130;2023-05-24T16:50:00;99970.13;;;14.27;35.77
55317;BME280;41178;48.956;8.130;2023-05-24T16:55:02;100034.28;;;15.91;34.80
55317;BME280;41178;48.956;8.130;2023-05-24T17:00:05;99999.78;;;14.47;36.93
55317;BME280;41178;48.956;8.130;2023-05-24T17:05:07;100016.56;;;15.49;35.82
55317;BME280;41178;48.956;8.130;2023-05-24T17:10:09;100010.59;;;14.67;37.00
55317;BME280;41178;48.956;8.130;2023-05-24T17:15:11;99984.00;;;14.11;37.21
55317;BME280;41178;48.956;8.130;2023-05-24T17:20:13;99999.38;;;14.37;37.26
55317;BME280;41178;48.956;8.130;2023-05-24T17:25:15;99955.78;;;13.45;38.25
55317;BME280;41178;48.956;8.130;2023-05-24T17:30:16;99998.34;;;15.25;36.83
55317;BME280;41178;48.956;8.130;2023-05-24T17:35:20;99996.03;;;14.21;37.81
55317;BME280;41178;48.956;8.130;2023-05-24T17:40:22;99991.13;;;14.72;37.95
55317;BME280;41178;48.956;8.130;2023-05-24T17:45:23;100011.38;;;14.34;38.37
55317;BME280;41178;48.956;8.130;2023-05-24T17:50:25;99995.47;;;14.46;38.39
55317;BME280;41178;48.956;8.130;2023-05-24T17:55:27;100021.75;;;14.51;38.08
55317;BME280;41178;48.956;8.130;2023-05-24T18:00:28;100009.94;;;14.38;38.81
55317;BME280;41178;48.956;8.130;2023-05-24T18:05:30;100004.19;;;13.93;38.97
55317;BME280;41178;48.956;8.130;2023-05-24T18:10:32;99993.03;;;13.48;39.45
55317;BME280;41178;48.956;8.130;2023-05-24T18:15:34;100019.53;;;14.88;38.28
55317;BME280;41178;48.956;8.130;2023-05-24T18:20:35;100031.84;;;14.29;38.09
55317;BME280;41178;48.956;8.130;2023-05-24T18:25:37;100020.06;;;13.81;39.40
55317;BME280;41178;48.956;8.130;2023-05-24T18:30:41;100031.50;;;13.97;39.43
55317;BME280;41178;48.956;8.130;2023-05-24T18:35:43;100035.44;;;14.43;38.54
55317;BME280;41178;48.956;8.130;2023-05-24T18:40:45;100058.41;;;13.97;39.02
55317;BME280;41178;48.956;8.130;2023-05-24T18:45:47;100037.00;;;13.40;39.36
55317;BME280;41178;48.956;8.130;2023-05-24T18:50:48;100058.31;;;15.07;38.03
55317;BME280;41178;48.956;8.130;2023-05-24T18:55:51;100059.75;;;14.08;38.61
55317;BME280;41178;48.956;8.130;2023-05-24T19:00:53;100043.38;;;13.33;39.67
55317;BME280;41178;48.956;8.130;2023-05-24T19:05:54;100056.75;;;14.51;38.12
55317;BME280;41178;48.956;8.130;2023-05-24T19:10:56;100073.19;;;14.83;38.45
55317;BME280;41178;48.956;8.130;2023-05-24T19:15:58;100071.81;;;13.48;39.47
55317;BME280;41178;48.956;8.130;2023-05-24T19:21:02;100044.81;;;12.85;40.07
55317;BME280;41178;48.956;8.130;2023-05-24T19:26:03;100075.59;;;14.37;38.95
55317;BME280;41178;48.956;8.130;2023-05-24T19:31:05;100075.19;;;14.47;39.06
55317;BME280;41178;48.956;8.130;2023-05-24T19:36:07;100083.38;;;13.49;39.26
55317;BME280;41178;48.956;8.130;2023-05-24T19:41:11;100105.34;;;14.91;37.88
55317;BME280;41178;48.956;8.130;2023-05-24T19:46:12;100108.19;;;14.08;39.03
55317;BME280;41178;48.956;8.130;2023-05-24T19:51:15;100096.22;;;13.25;39.32
55317;BME280;41178;48.956;8.130;2023-05-24T19:56:17;100104.66;;;13.44;39.28
55317;BME280;41178;48.956;8.130;2023-05-24T20:01:19;100102.91;;;13.29;39.44
55317;BME280;41178;48.956;8.130;2023-05-24T20:06:21;100099.84;;;13.67;39.15
55317;BME280;41178;48.956;8.130;2023-05-24T20:11:23;100082.22;;;12.65;40.03
55317;BME280;41178;48.956;8.130;2023-05-24T20:16:25;100106.47;;;13.37;38.82
55317;BME280;41178;48.956;8.130;2023-05-24T20:21:27;100105.22;;;13.39;39.14
55317;BME280;41178;48.956;8.130;2023-05-24T20:26:29;100084.34;;;14.66;38.89
55317;BME280;41178;48.956;8.130;2023-05-24T20:31:33;100118.56;;;13.54;39.44
55317;BME280;41178;48.956;8.130;2023-05-24T20:36:35;100102.06;;;13.29;39.36
55317;BME280;41178;48.956;8.130;2023-05-24T20:41:37;100121.63;;;14.08;38.75
55317;BME280;41178;48.956;8.130;2023-05-24T20:46:38;100109.44;;;13.77;40.00
55317;BME280;41178;48.956;8.130;2023-05-24T20:51:41;100114.78;;;12.77;39.94
55317;BME280;41178;48.956;8.130;2023-05-24T20:56:43;100075.63;;;12.31;40.79
55317;BME280;41178;48.956;8.130;2023-05-24T21:01:44;100085.69;;;12.44;40.67
55317;BME280;41178;48.956;8.130;2023-05-24T21:06:46;100080.47;;;12.21;41.37
55317;BME280;41178;48.956;8.130;2023-05-24T21:11:48;100036.28;;;11.28;42.79
55317;BME280;41178;48.956;8.130;2023-05-24T21:16:50;100093.88;;;12.36;41.41
55317;BME280;41178;48.956;8.130;2023-05-24T21:21:51;100074.59;;;11.81;42.72
55317;BME280;41178;48.956;8.130;2023-05-24T21:26:53;100076.53;;;11.87;42.02
55317;BME280;41178;48.956;8.130;2023-05-24T21:31:55;100085.03;;;11.91;41.83
55317;BME280;41178;48.956;8.130;2023-05-24T21:36:57;100043.94;;;11.16;42.78
55317;BME280;41178;48.956;8.130;2023-05-24T21:41:58;100080.22;;;12.01;42.20
55317;BME280;41178;48.956;8.130;2023-05-24T21:47:00;100087.06;;;12.18;42.06
55317;BME280;41178;48.956;8.130;2023-05-24T21:52:02;100102.28;;;12.33;42.05
55317;BME280;41178;48.956;8.130;2023-05-24T21:57:04;100094.69;;;12.36;42.27
55317;BME280;41178;48.956;8.130;2023-05-24T22:02:07;100108.06;;;11.85;42.69
55317;BME280;41178;48.956;8.130;2023-05-24T22:07:09;100104.09;;;12.62;42.06
55317;BME280;41178;48.956;8.130;2023-05-24T22:12:11;100111.34;;;12.47;41.71
55317;BME280;41178;48.956;8.130;2023-05-24T22:17:13;100113.25;;;12.02;42.30
55317;BME280;41178;48.956;8.130;2023-05-24T22:22:15;100123.44;;;11.91;42.65
55317;BME280;41178;48.956;8.130;2023-05-24T22:27:20;100118.19;;;12.34;42.07
55317;BME280;41178;48.956;8.130;2023-05-24T22:32:22;100152.34;;;12.41;42.16
55317;BME280;41178;48.956;8.130;2023-05-24T22:37:23;100150.72;;;12.76;41.85
55317;BME280;41178;48.956;8.130;2023-05-24T22:42:25;100165.41;;;11.99;42.52
55317;BME280;41178;48.956;8.130;2023-05-24T22:47:27;100163.13;;;12.99;41.64
55317;BME280;41178;48.956;8.130;2023-05-24T22:52:29;100172.81;;;12.27;42.85
55317;BME280;41178;48.956;8.130;2023-05-24T22:57:34;100162.63;;;12.37;42.70
55317;BME280;41178;48.956;8.130;2023-05-24T23:02:35;100163.47;;;11.78;42.94
55317;BME280;41178;48.956;8.130;2023-05-24T23:07:37;100158.66;;;12.48;43.27
55317;BME280;41178;48.956;8.130;2023-05-24T23:12:40;100129.81;;;10.91;44.45
55317;BME280;41178;48.956;8.130;2023-05-24T23:17:45;100142.34;;;10.99;44.50
55317;BME280;41178;48.956;8.130;2023-05-24T23:22:47;100117.41;;;10.67;45.59
55317;BME280;41178;48.956;8.130;2023-05-24T23:27:49;100144.16;;;11.44;44.98
55317;BME280;41178;48.956;8.130;2023-05-24T23:32:51;100136.00;;;10.92;44.90
55317;BME280;41178;48.956;8.130;2023-05-24T23:37:53;100152.25;;;11.36;44.87
55317;BME280;41178;48.956;8.130;2023-05-24T23:42:55;100135.28;;;12.63;43.24
55317;BME280;41178;48.956;8.130;2023-05-24T23:47:57;100148.97;;;12.68;43.05
55317;BME280;41178;48.956;8.130;2023-05-24T23:52:59;100190.56;;;12.28;43.21
55317;BME280;41178;48.956;8.130;2023-05-24T23:58:00;100192.47;;;11.89;44.27
